Flight Track Log - Related Links

Times and Time Zones

All times are in EDT time to prevent confusion due to time zone crossing. See the SKW5619 flight status page for this flight to view local times or setup timezone preferences in your user account.

Time Position Orientation Groundspeed Altitude Reporting Facility
EDT Latitude Longitude Course Direction KTS MPH feet Rate Location/Type
Thu 11:06:00 PM 40.2533 -105.0443 324° Northwest  Level Estimated
Thu 11:07:00 PM 40.3510 -105.1378 324° Northwest  Level Estimated
Thu 11:08:00 PM 40.4487 -105.2315 324° Northwest  Level Estimated
Thu 11:09:00 PM 40.5462 -105.3255 324° Northwest  Level Estimated
Thu 11:10:00 PM 40.6437 -105.4198 324° Northwest  Level Estimated
Thu 11:11:00 PM 40.7412 -105.5143 324° Northwest  Level Estimated
Thu 11:12:00 PM 40.8385 -105.6092 324° Northwest  Level Estimated
Thu 11:13:00 PM 40.9358 -105.7043 324° Northwest  Level Estimated
Thu 11:14:00 PM 41.0330 -105.7997 323° Northwest  Level Estimated
Thu 11:15:00 PM 41.1301 -105.8953 323° Northwest  Level Estimated
Thu 11:16:00 PM 41.2271 -105.9913 323° Northwest  Level Estimated
Thu 11:17:00 PM 41.3241 -106.0875 323° Northwest  Level Estimated
Thu 11:18:00 PM 41.4209 -106.1841 323° Northwest  Level Estimated
Thu 11:19:00 PM 41.5177 -106.2809 323° Northwest  Level Estimated
Thu 11:20:00 PM 41.6144 -106.3780 323° Northwest  Level Estimated
Thu 11:21:00 PM 41.7110 -106.4754 323° Northwest  Level Estimated
Thu 11:22:00 PM 41.8076 -106.5731 323° Northwest  Level Estimated
Thu 11:23:00 PM 41.9040 -106.6710 323° Northwest  Level Estimated
Thu 11:24:00 PM 42.0004 -106.7693 323° Northwest  Level Estimated
Thu 11:25:00 PM 42.0967 -106.8679 323° Northwest  Level Estimated
Thu 11:26:00 PM 42.1929 -106.9668 323° Northwest  Level Estimated
Thu 11:27:00 PM 42.2890 -107.0660 323° Northwest  Level Estimated
Thu 11:28:00 PM 42.3851 -107.1654 323° Northwest  Level Estimated
Thu 11:29:00 PM 42.4810 -107.2652 323° Northwest  Level Estimated
Thu 11:30:00 PM 42.5769 -107.3653 322° Northwest  Level Estimated
Thu 11:31:00 PM 42.6726 -107.4657 322° Northwest  Level Estimated
Thu 11:32:00 PM 42.7683 -107.5664 322° Northwest  Level Estimated
Thu 11:33:00 PM 42.8639 -107.6674 322° Northwest  Level Estimated
Thu 11:34:00 PM 42.9594 -107.7688 322° Northwest  Level Estimated
Thu 11:35:00 PM 43.0549 -107.8704 322° Northwest  Level Estimated
Thu 11:36:00 PM 43.1502 -107.9724 322° Northwest  Level Estimated
Thu 11:37:00 PM 43.2454 -108.0747 322° Northwest  Level Estimated
Thu 11:38:00 PM 43.3406 -108.1773 322° Northwest  Level Estimated
Thu 11:39:00 PM 43.4356 -108.2802 322° Northwest  Level Estimated
Thu 11:40:00 PM 43.5306 -108.3835 322° Northwest  Level Estimated
Thu 11:41:00 PM 43.6255 -108.4871 322° Northwest  Level Estimated
Thu 11:42:00 PM 43.7202 -108.5910 322° Northwest  Level Estimated
Thu 11:43:00 PM 43.8149 -108.6952 322° Northwest  Level Estimated
Thu 11:44:00 PM 43.9095 -108.7998 321° Northwest  Level Estimated
Thu 11:45:00 PM 44.0040 -108.9047 321° Northwest  Level Estimated
Thu 11:46:00 PM 44.0984 -109.0099 321° Northwest  Level Estimated
Thu 11:47:00 PM 44.1927 -109.1155 321° Northwest  Level Estimated
Thu 11:48:00 PM 44.2869 -109.2214 321° Northwest  Level Estimated
Thu 11:49:00 PM 44.3810 -109.3276 321° Northwest  Level Estimated
Thu 11:50:00 PM 44.4750 -109.4342 321° Northwest  Level Estimated
Thu 11:51:00 PM 44.5689 -109.5411 321° Northwest  Level Estimated
Thu 11:52:00 PM 44.6627 -109.6484 321° Northwest  Level Estimated
Thu 11:53:00 PM 44.7564 -109.7561 321° Northwest  Level Estimated
Thu 11:54:00 PM 44.8500 -109.8640 321° Northwest  Level Estimated
Thu 11:55:00 PM 44.9435 -109.9724 321° Northwest  Level Estimated
Thu 11:56:00 PM 45.0369 -110.0810 321° Northwest  Level Estimated
Thu 11:57:00 PM 45.1302 -110.1901 321° Northwest  Level Estimated
Thu 11:58:00 PM 45.2234 -110.2995 320° Northwest  Level Estimated
Thu 11:59:00 PM 45.3164 -110.4092 320° Northwest  Level Estimated
Fri 12:00:00 AM 45.4094 -110.5193 320° Northwest  Level Estimated
Fri 12:01:00 AM 45.5023 -110.6298 320° Northwest  Level Estimated
Fri 12:02:00 AM 45.5951 -110.7406 320° Northwest  Level Estimated
Fri 12:03:00 AM 45.6877 -110.8518 320° Northwest  Level Estimated
Fri 12:04:00 AM 45.7803 -110.9634 320° Northwest  Level Estimated
Fri 12:05:00 AM 45.8727 -111.0754 320° Northwest  Level Estimated
Fri 12:06:00 AM 45.9650 -111.1877 320° Northwest  Level Estimated
Fri 12:07:00 AM 46.0573 -111.3004 320° Northwest  Level Estimated
Fri 12:08:00 AM 46.1494 -111.4134 320° Northwest  Level Estimated
Fri 12:09:00 AM 46.2414 -111.5269 320° Northwest  Level Estimated
Fri 12:10:00 AM 46.3332 -111.6407 319° Northwest  Level Estimated
Fri 12:11:00 AM 46.4250 -111.7549 319° Northwest  Level Estimated
Fri 12:12:00 AM 46.5167 -111.8695 319° Northwest  Level Estimated
Fri 12:13:00 AM 46.6068 -111.9827 319° Northwest  Level Estimated
Fri 12:14:00 AM 46.6068 -111.9827 180° South  Level Estimated
Fri 12:15:00 AM 46.6068 -111.9827 180° South  Level Estimated
Fri 12:16:00 AM 46.6068 -111.9827 180° South  Level Estimated
Fri 12:17:00 AM 46.6068 -111.9827 180° South  Level Estimated
Fri 12:18:00 AM 46.6068 -111.9827 180° South  Level Estimated
Fri 12:19:00 AM 46.6068 -111.9827 180° South  Level Estimated
Fri 12:20:00 AM 46.6068 -111.9827 180° South  Level Estimated
Fri 12:21:00 AM 46.6068 -111.9827 180° South  Level Estimated
Fri 12:22:00 AM 46.6068 -111.9827 180° South  Level Estimated
Fri 12:23:00 AM 46.6068 -111.9827 180° South  Level Estimated
Fri 12:24:00 AM 46.6068 -111.9827 180° South  Level Estimated
Fri 12:25:00 AM 46.6068 -111.9827 180° South  Level Estimated
Fri 12:26:00 AM 46.6068 -111.9827 180° South  Level Estimated
Fri 12:27:00 AM 46.6068 -111.9827 180° South  Level Estimated
Fri 12:28:00 AM 46.6068 -111.9827 180° South  Level Estimated
Fri 12:29:00 AM 46.6068 -111.9827 180° South  Level Estimated

Login

Don't have an account? Register now (free) for customized features, flight alerts, and more!